Time;durP1;ratioP1;P1;durP2;ratioP2;P2;SDS_P1;SDS_P2;PMS_P1;PMS_P2;Temp;Humidity;BMP_temperature;BMP_pressure;BME280_temperature;BME280_humidity;BME280_pressure;Samples;Min_cycle;Max_cycle;Signal;HPM_P1;HPM_P2
2024/01/20 00:00:29;;;;;;;31.47;15.07;;;0.40;99.90;;;;;;4994975;28;20252;-59
2024/01/20 00:02:55;;;;;;;29.33;15.73;;;0.30;99.90;;;;;;4995579;28;20181;-60
2024/01/20 00:05:21;;;;;;;30.10;15.03;;;0.20;99.90;;;;;;4995515;28;20178;-60
2024/01/20 00:07:46;;;;;;;30.10;15.70;;;0.30;99.90;;;;;;4995405;28;20181;-59
2024/01/20 00:10:12;;;;;;;37.63;16.03;;;0.30;99.90;;;;;;4995310;28;20186;-60
2024/01/20 00:12:39;;;;;;;32.77;15.93;;;0.40;99.90;;;;;;4995233;28;20192;-60
2024/01/20 00:15:07;;;;;;;34.33;16.37;;;0.30;99.90;;;;;;4995071;28;20673;-60
2024/01/20 00:17:33;;;;;;;33.10;16.77;;;0.30;99.90;;;;;;4995320;28;20182;-60
2024/01/20 00:19:58;;;;;;;38.27;17.73;;;0.50;99.90;;;;;;4995220;28;20576;-60
2024/01/20 00:22:24;;;;;;;33.47;17.23;;;0.40;99.90;;;;;;4995072;28;20235;-59
2024/01/20 00:24:50;;;;;;;31.67;16.10;;;0.30;99.90;;;;;;4995186;28;20206;-60
2024/01/20 00:27:16;;;;;;;34.20;16.23;;;0.20;99.90;;;;;;4994888;28;20176;-60
2024/01/20 00:29:41;;;;;;;31.87;17.17;;;0.20;99.90;;;;;;4994705;28;20185;-59
2024/01/20 00:32:07;;;;;;;36.67;17.83;;;0.30;99.90;;;;;;4994728;28;20703;-60
2024/01/20 00:34:33;;;;;;;36.57;17.07;;;0.30;99.90;;;;;;4994714;28;20519;-60
2024/01/20 00:37:00;;;;;;;32.13;15.63;;;0.30;99.90;;;;;;4994760;28;20172;-59
2024/01/20 00:39:26;;;;;;;30.97;16.13;;;0.20;99.90;;;;;;4993849;28;20174;-60
2024/01/20 00:41:51;;;;;;;31.40;15.30;;;0.30;99.90;;;;;;4994563;28;20571;-60
2024/01/20 00:44:17;;;;;;;31.87;15.53;;;0.20;99.90;;;;;;4994448;28;20190;-59
2024/01/20 00:46:43;;;;;;;37.47;17.13;;;0.30;99.90;;;;;;4994755;28;20177;-59
2024/01/20 00:49:08;;;;;;;32.40;16.20;;;0.30;99.90;;;;;;4994667;28;20188;-59
2024/01/20 00:51:34;;;;;;;34.17;16.90;;;0.30;99.90;;;;;;4994621;28;20192;-59
2024/01/20 00:54:00;;;;;;;36.40;18.43;;;0.40;99.90;;;;;;4994447;28;20273;-59
2024/01/20 00:56:25;;;;;;;31.50;15.90;;;0.40;99.90;;;;;;4994542;28;20186;-59
2024/01/20 00:58:51;;;;;;;31.20;16.30;;;0.40;99.90;;;;;;4994086;28;20663;-59
2024/01/20 01:01:17;;;;;;;29.27;15.97;;;0.50;99.90;;;;;;4994137;28;20251;-59
2024/01/20 01:03:42;;;;;;;29.90;15.53;;;0.50;99.90;;;;;;4994535;28;20256;-59
2024/01/20 01:06:08;;;;;;;35.03;16.97;;;0.50;99.90;;;;;;4994472;28;20181;-59
2024/01/20 01:08:35;;;;;;;31.97;16.37;;;0.40;99.90;;;;;;4994129;28;20174;-60
2024/01/20 01:11:00;;;;;;;34.03;17.20;;;0.40;99.90;;;;;;4994212;28;20231;-59
2024/01/20 01:13:26;;;;;;;36.40;18.07;;;0.30;99.90;;;;;;4994171;28;20181;-59
2024/01/20 01:15:52;;;;;;;33.70;17.03;;;0.40;99.90;;;;;;4994080;28;20178;-59
2024/01/20 01:18:17;;;;;;;33.07;16.23;;;0.30;99.90;;;;;;4994264;28;20689;-59
2024/01/20 01:20:43;;;;;;;34.33;16.37;;;0.30;99.90;;;;;;4993798;28;20220;-59
2024/01/20 01:23:09;;;;;;;31.57;16.43;;;0.40;99.90;;;;;;4994130;28;20227;-59
2024/01/20 01:25:34;;;;;;;31.80;16.30;;;0.30;99.90;;;;;;4994043;28;20253;-59
2024/01/20 01:28:00;;;;;;;34.73;16.27;;;0.30;99.90;;;;;;4993911;28;20185;-60
2024/01/20 01:30:26;;;;;;;31.53;16.90;;;0.30;99.90;;;;;;4993785;28;20259;-59
2024/01/20 01:32:51;;;;;;;35.57;16.57;;;0.30;99.90;;;;;;4994141;28;20239;-60
2024/01/20 01:35:17;;;;;;;34.20;16.13;;;0.20;99.90;;;;;;4993956;28;20223;-60
2024/01/20 01:37:43;;;;;;;34.57;17.13;;;0.40;99.90;;;;;;4994032;28;20626;-60
2024/01/20 01:40:09;;;;;;;29.07;15.50;;;0.50;99.90;;;;;;4993861;28;20202;-60
2024/01/20 01:42:34;;;;;;;32.93;16.17;;;0.50;99.90;;;;;;4993707;28;20219;-59
2024/01/20 01:45:00;;;;;;;31.97;15.63;;;0.40;99.90;;;;;;4993618;28;20177;-59
2024/01/20 01:47:26;;;;;;;29.67;14.43;;;0.40;99.90;;;;;;4993902;28;20185;-60
2024/01/20 01:49:52;;;;;;;32.60;15.73;;;0.40;99.90;;;;;;4993847;28;20592;-60
2024/01/20 01:52:20;;;;;;;28.17;15.50;;;0.40;99.90;;;;;;4997090;28;20533;-60
2024/01/20 01:54:46;;;;;;;32.43;16.23;;;0.40;99.90;;;;;;4997723;28;20196;-59
2024/01/20 01:57:14;;;;;;;33.43;17.17;;;0.30;99.90;;;;;;4997733;28;20185;-59
2024/01/20 01:59:40;;;;;;;32.97;15.93;;;0.30;99.90;;;;;;4997378;28;20189;-59
2024/01/20 02:02:06;;;;;;;31.97;15.33;;;0.20;99.90;;;;;;4997762;28;20258;-59
2024/01/20 02:04:32;;;;;;;31.27;15.70;;;0.50;99.90;;;;;;4997694;28;20629;-59
2024/01/20 02:06:58;;;;;;;33.10;16.37;;;0.40;99.90;;;;;;4997672;28;20181;-59
2024/01/20 02:09:24;;;;;;;31.80;17.47;;;0.30;99.90;;;;;;4997449;28;20180;-59
2024/01/20 02:11:51;;;;;;;31.30;15.43;;;0.20;99.90;;;;;;4997480;28;20184;-59
2024/01/20 02:14:18;;;;;;;32.53;15.70;;;0.10;99.90;;;;;;4997290;28;20180;-59
2024/01/20 02:16:44;;;;;;;33.53;14.87;;;0.20;99.90;;;;;;4997477;28;20176;-59
2024/01/20 02:19:10;;;;;;;35.90;18.37;;;0.30;99.90;;;;;;4997379;28;20185;-60
2024/01/20 02:21:37;;;;;;;31.57;16.03;;;0.20;99.90;;;;;;4997043;28;20682;-59
2024/01/20 02:24:07;;;;;;;26.57;15.07;;;0.30;99.90;;;;;;4997111;28;20178;-59
2024/01/20 02:26:33;;;;;;;31.83;15.10;;;0.30;99.90;;;;;;4997063;28;20176;-59
2024/01/20 02:28:58;;;;;;;31.70;16.80;;;0.30;99.90;;;;;;4997004;28;20178;-60
2024/01/20 02:31:24;;;;;;;33.80;16.57;;;0.30;99.90;;;;;;4997193;28;20182;-59
2024/01/20 02:33:50;;;;;;;35.37;16.83;;;0.30;99.90;;;;;;4997132;28;20256;-59
2024/01/20 02:36:15;;;;;;;32.77;16.40;;;0.40;99.90;;;;;;4996848;28;20185;-59
2024/01/20 02:38:41;;;;;;;35.50;17.83;;;0.40;99.90;;;;;;4996910;28;20185;-59
2024/01/20 02:41:06;;;;;;;31.27;15.93;;;0.40;99.90;;;;;;4996737;28;20236;-59
2024/01/20 02:43:32;;;;;;;36.47;17.77;;;0.40;99.90;;;;;;4996884;28;20188;-59
2024/01/20 02:45:58;;;;;;;37.80;18.23;;;0.30;99.90;;;;;;4997045;28;20534;-59
2024/01/20 02:48:24;;;;;;;34.23;17.30;;;0.30;99.90;;;;;;4996923;28;20637;-59
2024/01/20 02:50:50;;;;;;;40.03;18.00;;;0.30;99.90;;;;;;4996652;28;20566;-59
2024/01/20 02:53:16;;;;;;;40.00;18.87;;;0.20;99.90;;;;;;4996634;28;20191;-59
2024/01/20 02:55:41;;;;;;;34.60;16.50;;;0.30;99.90;;;;;;4996652;28;20181;-59
2024/01/20 02:58:07;;;;;;;35.47;17.27;;;0.30;99.90;;;;;;4996499;28;20243;-59
2024/01/20 03:00:33;;;;;;;36.10;17.50;;;0.20;99.90;;;;;;4996486;28;20332;-59
2024/01/20 03:02:58;;;;;;;33.47;15.97;;;0.20;99.90;;;;;;4995497;28;20589;-60
2024/01/20 03:05:24;;;;;;;35.43;17.97;;;0.20;99.90;;;;;;4996391;28;20659;-60
2024/01/20 03:07:49;;;;;;;34.07;16.93;;;0.30;99.90;;;;;;4996317;28;20239;-59
2024/01/20 03:10:15;;;;;;;32.70;17.50;;;0.30;99.90;;;;;;4996332;28;20197;-59
2024/01/20 03:12:41;;;;;;;31.60;16.30;;;0.10;99.90;;;;;;4996216;28;20689;-60
2024/01/20 03:15:07;;;;;;;34.50;17.10;;;0.10;99.90;;;;;;4996121;28;20553;-60
2024/01/20 03:17:33;;;;;;;32.30;17.10;;;0.20;99.90;;;;;;4996294;28;20208;-59
2024/01/20 03:19:59;;;;;;;34.40;17.30;;;0.10;99.90;;;;;;4995966;28;20303;-59
2024/01/20 03:22:24;;;;;;;37.63;18.63;;;0.20;99.90;;;;;;4996096;28;20185;-59
2024/01/20 03:24:50;;;;;;;34.17;16.83;;;0.20;99.90;;;;;;4996022;28;20180;-59
2024/01/20 03:27:19;;;;;;;32.90;17.50;;;0.10;99.90;;;;;;4995955;28;20191;-59
2024/01/20 03:29:45;;;;;;;37.57;17.10;;;0.10;99.90;;;;;;4995889;28;20538;-59
2024/01/20 03:32:10;;;;;;;33.40;16.40;;;0.10;99.90;;;;;;4996086;28;20180;-60
2024/01/20 03:34:37;;;;;;;35.60;16.50;;;0.20;99.90;;;;;;4995839;28;20585;-59
2024/01/20 03:37:03;;;;;;;31.87;16.70;;;0.20;99.90;;;;;;4995849;28;20189;-60
2024/01/20 03:39:28;;;;;;;33.13;16.97;;;0.30;99.90;;;;;;4995785;28;20178;-60
2024/01/20 03:41:54;;;;;;;34.03;16.53;;;0.20;99.90;;;;;;4995680;28;20568;-60
2024/01/20 03:44:20;;;;;;;35.43;16.13;;;0.20;99.90;;;;;;4995880;28;20347;-60
2024/01/20 03:46:46;;;;;;;30.27;15.47;;;0.20;99.90;;;;;;4995713;28;20197;-59
2024/01/20 03:49:12;;;;;;;33.07;16.00;;;0.30;99.90;;;;;;4995671;28;20177;-60
2024/01/20 03:51:38;;;;;;;33.60;16.57;;;0.20;99.90;;;;;;4995598;28;20529;-61
2024/01/20 03:54:04;;;;;;;31.67;16.77;;;0.20;99.90;;;;;;4995392;28;20178;-61
2024/01/20 03:56:30;;;;;;;35.00;17.47;;;0.10;99.90;;;;;;4995318;28;20186;-60
2024/01/20 03:58:56;;;;;;;32.07;16.90;;;0.00;99.90;;;;;;4995365;28;20669;-60
2024/01/20 04:01:22;;;;;;;33.93;16.37;;;0.10;99.90;;;;;;4995121;28;20237;-61
2024/01/20 04:03:47;;;;;;;34.90;16.77;;;0.10;99.90;;;;;;4995346;28;20185;-61
2024/01/20 04:06:13;;;;;;;32.53;16.40;;;0.10;99.90;;;;;;4995508;28;20590;-60
2024/01/20 04:08:38;;;;;;;34.60;17.13;;;0.10;99.90;;;;;;4994083;28;20643;-60
2024/01/20 04:11:05;;;;;;;33.03;16.63;;;0.20;99.90;;;;;;4995056;28;20191;-60
2024/01/20 04:13:30;;;;;;;32.67;16.87;;;0.20;99.90;;;;;;4995049;28;20239;-59
2024/01/20 04:15:56;;;;;;;36.13;17.10;;;0.20;99.90;;;;;;4995223;28;20180;-60
2024/01/20 04:18:22;;;;;;;34.67;17.50;;;0.20;99.90;;;;;;4995047;28;20181;-60
2024/01/20 04:20:47;;;;;;;31.63;16.40;;;0.30;99.90;;;;;;4994971;28;20203;-60
2024/01/20 04:23:13;;;;;;;30.47;16.63;;;0.20;99.90;;;;;;4994834;28;20180;-60
2024/01/20 04:25:39;;;;;;;31.53;17.27;;;0.20;99.90;;;;;;4994701;28;20180;-60
2024/01/20 04:28:04;;;;;;;31.80;16.20;;;0.30;99.90;;;;;;4995012;28;20182;-60
2024/01/20 04:30:30;;;;;;;35.77;17.27;;;0.20;99.90;;;;;;4994994;28;20192;-60
2024/01/20 04:32:56;;;;;;;31.23;16.20;;;0.20;99.90;;;;;;4994808;28;20185;-60
2024/01/20 04:35:21;;;;;;;28.87;16.20;;;0.20;99.90;;;;;;4994664;28;20186;-59
2024/01/20 04:37:47;;;;;;;32.07;16.03;;;0.30;99.90;;;;;;4994652;28;20186;-59
2024/01/20 04:40:12;;;;;;;29.77;15.30;;;0.20;99.90;;;;;;4994401;28;20205;-60
2024/01/20 04:42:38;;;;;;;33.60;17.27;;;0.10;99.90;;;;;;4994565;28;20273;-60
2024/01/20 04:45:05;;;;;;;27.90;14.87;;;0.10;99.90;;;;;;4994589;28;20749;-60
2024/01/20 04:47:33;;;;;;;29.53;16.43;;;0.10;99.90;;;;;;4994498;28;20200;-59
2024/01/20 04:49:59;;;;;;;29.93;15.00;;;0.10;99.90;;;;;;4994408;28;20211;-59
2024/01/20 04:52:25;;;;;;;30.27;17.07;;;0.20;99.90;;;;;;4994383;28;20642;-59
2024/01/20 04:54:52;;;;;;;33.37;16.60;;;0.20;99.90;;;;;;4994243;28;20627;-59
2024/01/20 04:57:19;;;;;;;33.00;15.60;;;0.20;99.90;;;;;;4994410;28;20188;-59
2024/01/20 04:59:45;;;;;;;32.53;15.70;;;0.10;99.90;;;;;;4994176;28;20181;-59
2024/01/20 05:02:11;;;;;;;30.60;15.67;;;0.20;99.90;;;;;;4994339;28;20235;-59
2024/01/20 05:04:36;;;;;;;31.67;16.50;;;0.10;99.90;;;;;;4994219;28;20185;-59
2024/01/20 05:07:02;;;;;;;33.40;17.17;;;0.00;99.90;;;;;;4994186;28;20267;-59
2024/01/20 05:09:27;;;;;;;36.87;17.10;;;0.10;99.90;;;;;;4994042;28;20271;-59
2024/01/20 05:11:53;;;;;;;31.60;16.83;;;0.10;99.90;;;;;;4994257;28;20189;-59
2024/01/20 05:14:19;;;;;;;33.67;17.70;;;0.30;99.90;;;;;;4993993;28;20189;-59
2024/01/20 05:16:44;;;;;;;33.27;17.63;;;0.20;99.90;;;;;;4993998;28;20185;-59
2024/01/20 05:19:10;;;;;;;35.33;18.17;;;0.20;99.90;;;;;;4993991;28;20181;-59
2024/01/20 05:21:37;;;;;;;36.43;17.50;;;0.20;99.90;;;;;;4993792;28;20215;-59
2024/01/20 05:24:03;;;;;;;34.47;17.43;;;0.10;99.90;;;;;;4993795;28;20184;-59
2024/01/20 05:26:30;;;;;;;32.73;16.37;;;0.30;99.90;;;;;;4992247;28;20618;-59
2024/01/20 05:28:56;;;;;;;30.30;16.33;;;0.10;99.90;;;;;;4993960;28;20187;-59
2024/01/20 05:31:24;;;;;;;28.67;16.40;;;0.10;99.90;;;;;;4993929;28;20180;-59
2024/01/20 05:33:50;;;;;;;26.90;16.90;;;0.20;99.90;;;;;;4993841;28;20231;-59
2024/01/20 05:36:15;;;;;;;32.67;17.43;;;0.30;99.90;;;;;;4993886;28;20272;-59
2024/01/20 05:38:41;;;;;;;28.13;16.27;;;0.30;99.90;;;;;;4993639;28;20178;-59
2024/01/20 05:41:08;;;;;;;29.33;17.23;;;0.30;99.90;;;;;;4993562;28;20212;-59
2024/01/20 05:43:33;;;;;;;29.00;17.70;;;0.30;99.90;;;;;;4993669;28;20184;-59
2024/01/20 05:46:03;;;;;;;29.27;16.37;;;0.30;99.90;;;;;;4993811;28;20669;-59
2024/01/20 05:48:30;;;;;;;29.57;16.23;;;0.30;99.90;;;;;;4993534;28;20189;-59
2024/01/20 05:50:56;;;;;;;26.70;15.63;;;0.30;99.90;;;;;;4993460;28;20191;-59
2024/01/20 05:53:22;;;;;;;30.90;17.63;;;0.10;99.90;;;;;;4993446;28;20194;-59
2024/01/20 05:55:47;;;;;;;28.37;15.93;;;0.00;99.90;;;;;;4993612;28;20645;-60
2024/01/20 05:58:14;;;;;;;27.40;14.63;;;0.00;99.90;;;;;;4993576;28;20219;-59
2024/01/20 06:00:39;;;;;;;25.37;14.30;;;0.00;99.90;;;;;;4993342;28;20244;-59
2024/01/20 06:03:05;;;;;;;27.77;15.60;;;-0.10;99.90;;;;;;4993545;28;20701;-60
2024/01/20 06:05:30;;;;;;;27.40;15.27;;;0.00;99.90;;;;;;4993443;28;20177;-59
2024/01/20 06:07:56;;;;;;;26.73;15.17;;;0.10;99.90;;;;;;4993450;28;20268;-59
2024/01/20 06:10:22;;;;;;;28.70;15.53;;;-0.10;99.90;;;;;;4993584;28;20220;-59
2024/01/20 06:12:48;;;;;;;27.67;14.50;;;-0.10;99.90;;;;;;4993562;28;20539;-59
2024/01/20 06:15:13;;;;;;;26.17;15.07;;;0.10;99.90;;;;;;4993413;28;20181;-59
2024/01/20 06:17:39;;;;;;;30.93;16.40;;;0.10;99.90;;;;;;4993522;28;20207;-59
2024/01/20 06:20:07;;;;;;;26.73;15.83;;;0.00;99.90;;;;;;4993286;28;20201;-59
2024/01/20 06:22:33;;;;;;;28.87;16.90;;;0.00;99.90;;;;;;4993321;28;20181;-59
2024/01/20 06:24:59;;;;;;;28.93;16.07;;;0.10;99.90;;;;;;4993529;28;20195;-59
2024/01/20 06:27:24;;;;;;;26.00;14.17;;;0.00;99.90;;;;;;4993456;28;20267;-59
2024/01/20 06:29:50;;;;;;;27.60;14.50;;;0.10;99.90;;;;;;4993388;28;20256;-59
2024/01/20 06:32:16;;;;;;;26.63;13.97;;;0.10;99.90;;;;;;4993286;28;20188;-52
2024/01/20 06:34:41;;;;;;;25.20;14.13;;;0.10;99.90;;;;;;4993246;28;20650;-53
2024/01/20 06:37:07;;;;;;;27.53;15.73;;;0.10;99.90;;;;;;4983291;28;20193;-54
2024/01/20 06:39:33;;;;;;;26.73;14.73;;;0.00;99.90;;;;;;4987199;28;20651;-53
2024/01/20 06:41:58;;;;;;;26.40;14.50;;;0.00;99.90;;;;;;4983016;28;20209;-54
2024/01/20 06:44:24;;;;;;;26.17;14.53;;;0.10;99.90;;;;;;4984028;28;20650;-54
2024/01/20 06:46:50;;;;;;;24.07;14.10;;;0.20;99.90;;;;;;4977327;28;20196;-53
2024/01/20 06:49:16;;;;;;;23.47;13.53;;;0.00;99.90;;;;;;4977173;28;20188;-53
2024/01/20 06:51:45;;;;;;;27.30;13.83;;;-0.10;99.90;;;;;;4976968;28;20186;-54
2024/01/20 06:54:10;;;;;;;25.13;15.33;;;-0.10;99.90;;;;;;4987456;28;20195;-53
2024/01/20 06:56:36;;;;;;;23.53;13.97;;;0.00;99.90;;;;;;4996582;28;20182;-55
2024/01/20 06:59:02;;;;;;;25.77;14.53;;;0.00;99.90;;;;;;4978726;28;20196;-53
2024/01/20 07:01:27;;;;;;;24.03;14.50;;;0.00;99.90;;;;;;4996439;28;20294;-53
2024/01/20 07:03:53;;;;;;;25.37;15.43;;;0.00;99.90;;;;;;4996311;28;20188;-55
2024/01/20 07:06:24;;;;;;;23.90;15.00;;;0.00;99.90;;;;;;4995617;28;20281;-56
2024/01/20 07:08:49;;;;;;;24.47;15.33;;;0.00;99.90;;;;;;4996193;28;20222;-53
2024/01/20 07:11:15;;;;;;;25.23;15.13;;;0.10;99.90;;;;;;4995378;28;20793;-53
2024/01/20 07:13:41;;;;;;;25.97;15.47;;;0.10;99.90;;;;;;4984781;28;20195;-55
2024/01/20 07:16:18;;;;;;;23.63;15.53;;;0.10;99.90;;;;;;4996245;28;20185;-53
2024/01/20 07:18:44;;;;;;;24.27;14.77;;;0.20;99.90;;;;;;4995552;28;20322;-54
2024/01/20 07:21:10;;;;;;;24.17;14.13;;;0.20;99.90;;;;;;4995934;28;20546;-55
2024/01/20 07:23:35;;;;;;;27.00;14.43;;;0.10;99.90;;;;;;4995857;28;20185;-54
2024/01/20 07:26:01;;;;;;;24.63;14.40;;;0.10;99.90;;;;;;4994771;28;20190;-55
2024/01/20 07:28:27;;;;;;;24.77;14.83;;;0.20;99.90;;;;;;4995904;28;20562;-54
2024/01/20 07:30:53;;;;;;;25.77;15.27;;;0.10;99.90;;;;;;4995895;28;20185;-54
2024/01/20 07:33:18;;;;;;;24.87;15.03;;;0.10;99.90;;;;;;4995685;28;20181;-53
2024/01/20 07:35:44;;;;;;;25.57;14.93;;;0.10;99.90;;;;;;4995844;28;20181;-55
2024/01/20 07:38:11;;;;;;;26.93;15.47;;;0.20;99.90;;;;;;4995852;28;20185;-54
2024/01/20 07:40:36;;;;;;;22.50;14.77;;;0.10;99.90;;;;;;4995625;28;20251;-53
2024/01/20 07:43:03;;;;;;;27.77;15.10;;;0.10;99.90;;;;;;4995683;28;20182;-54
2024/01/20 07:45:30;;;;;;;23.60;14.27;;;0.10;99.90;;;;;;4995450;28;20537;-54
2024/01/20 07:47:56;;;;;;;25.03;16.40;;;0.20;99.90;;;;;;4995352;28;20611;-55
2024/01/20 07:50:21;;;;;;;26.50;15.07;;;0.10;99.90;;;;;;4995155;28;20278;-54
2024/01/20 07:52:47;;;;;;;24.77;14.77;;;0.10;99.90;;;;;;4992020;28;20178;-54
2024/01/20 07:55:13;;;;;;;23.70;15.33;;;0.10;99.90;;;;;;4975960;28;20595;-56
2024/01/20 07:57:39;;;;;;;25.07;15.63;;;0.10;99.90;;;;;;4975906;28;20272;-56
2024/01/20 08:00:06;;;;;;;26.93;15.47;;;0.10;99.90;;;;;;4975803;28;20179;-55
2024/01/20 08:02:32;;;;;;;24.00;14.70;;;0.10;99.90;;;;;;4975826;28;20236;-52
2024/01/20 08:04:59;;;;;;;25.83;16.90;;;0.20;99.90;;;;;;4975758;28;20703;-55
2024/01/20 08:07:25;;;;;;;26.70;15.97;;;0.30;99.90;;;;;;4975950;28;20192;-56
2024/01/20 08:09:50;;;;;;;28.80;16.67;;;0.30;99.90;;;;;;4975863;28;20203;-55
2024/01/20 08:12:16;;;;;;;30.03;16.93;;;0.40;99.90;;;;;;4977339;28;20200;-56
2024/01/20 08:14:42;;;;;;;26.47;16.27;;;0.20;99.90;;;;;;4991456;28;20182;-57
2024/01/20 08:17:07;;;;;;;26.37;16.60;;;0.30;99.90;;;;;;4994625;28;20192;-55
2024/01/20 08:19:33;;;;;;;23.10;14.03;;;0.20;99.90;;;;;;4992802;28;20265;-55
2024/01/20 08:21:59;;;;;;;25.57;15.37;;;0.20;99.90;;;;;;4995034;28;20245;-55
2024/01/20 08:24:24;;;;;;;25.57;15.40;;;0.30;99.90;;;;;;4994872;28;20180;-54
2024/01/20 08:26:50;;;;;;;22.33;13.83;;;0.30;99.90;;;;;;4990023;28;20534;-55
2024/01/20 08:29:17;;;;;;;24.00;14.20;;;0.20;99.90;;;;;;4994700;28;20646;-55
2024/01/20 08:31:42;;;;;;;24.23;14.30;;;0.20;99.90;;;;;;4994386;28;20239;-53
2024/01/20 08:34:08;;;;;;;22.70;14.40;;;0.30;99.90;;;;;;4994444;28;20185;-55
2024/01/20 08:36:34;;;;;;;23.90;14.90;;;0.40;99.90;;;;;;4994284;28;20196;-52
2024/01/20 08:38:59;;;;;;;24.60;14.20;;;0.40;99.90;;;;;;4994659;28;20215;-57
2024/01/20 08:41:25;;;;;;;25.37;14.87;;;0.30;99.90;;;;;;4993209;28;20232;-55
2024/01/20 08:43:51;;;;;;;24.13;14.77;;;0.50;99.90;;;;;;4994751;28;20371;-55
2024/01/20 08:46:17;;;;;;;25.23;14.63;;;0.60;99.90;;;;;;4994425;28;20181;-57
2024/01/20 08:48:42;;;;;;;22.17;13.63;;;0.40;99.90;;;;;;4994331;28;20639;-53
2024/01/20 08:51:08;;;;;;;22.73;13.53;;;0.50;99.90;;;;;;4994447;28;20557;-51
2024/01/20 08:53:34;;;;;;;20.07;13.23;;;0.40;99.90;;;;;;4994379;28;20561;-55
2024/01/20 08:56:00;;;;;;;19.50;12.90;;;0.40;99.90;;;;;;4994912;28;20632;-55
2024/01/20 08:58:26;;;;;;;20.43;11.73;;;0.30;99.90;;;;;;4994500;28;20200;-52
2024/01/20 09:00:52;;;;;;;21.00;12.57;;;0.40;99.90;;;;;;4993496;28;20678;-55
2024/01/20 09:03:18;;;;;;;20.10;12.93;;;0.50;99.90;;;;;;4978095;28;20193;-53
2024/01/20 09:05:43;;;;;;;19.67;12.63;;;0.50;99.90;;;;;;4974954;28;20189;-51
2024/01/20 09:08:10;;;;;;;19.37;12.70;;;0.40;99.90;;;;;;4974949;28;20181;-54
2024/01/20 09:10:36;;;;;;;20.40;12.97;;;0.50;99.90;;;;;;4974778;28;20194;-54
2024/01/20 09:13:07;;;;;;;21.10;13.10;;;0.40;99.90;;;;;;4974883;28;20240;-53
2024/01/20 09:15:32;;;;;;;21.63;12.70;;;0.50;99.90;;;;;;4974638;28;20268;-54
2024/01/20 09:17:58;;;;;;;24.43;14.20;;;0.50;99.90;;;;;;4974903;28;20269;-54
2024/01/20 09:20:24;;;;;;;22.80;14.23;;;0.60;99.90;;;;;;4974743;28;20210;-54
2024/01/20 09:22:50;;;;;;;24.50;13.97;;;0.70;99.90;;;;;;4974702;28;20631;-52
2024/01/20 09:25:16;;;;;;;25.07;16.03;;;0.80;99.90;;;;;;4989594;28;20189;-52
2024/01/20 09:27:42;;;;;;;22.70;15.00;;;0.90;99.90;;;;;;4974547;28;20185;-55
2024/01/20 09:30:09;;;;;;;24.07;15.23;;;0.90;99.90;;;;;;4974176;28;20175;-54
2024/01/20 09:32:35;;;;;;;25.30;16.50;;;1.00;99.90;;;;;;4974634;28;20206;-54
2024/01/20 09:35:02;;;;;;;25.80;15.73;;;1.00;99.90;;;;;;4974326;28;20580;-52
2024/01/20 09:37:29;;;;;;;22.93;14.17;;;1.00;99.90;;;;;;4974550;28;20194;-55
2024/01/20 09:40:00;;;;;;;22.27;13.93;;;1.10;99.90;;;;;;4974641;28;20177;-54
2024/01/20 09:42:26;;;;;;;22.70;14.53;;;1.10;99.90;;;;;;4974599;28;20198;-55
2024/01/20 09:44:52;;;;;;;22.83;14.57;;;1.10;99.90;;;;;;4974299;28;20177;-53
2024/01/20 09:47:18;;;;;;;18.60;12.80;;;1.00;99.90;;;;;;4974279;28;20181;-55
2024/01/20 09:49:44;;;;;;;22.47;13.80;;;1.00;99.90;;;;;;4974470;28;20184;-54
2024/01/20 09:52:28;;;;;;;23.97;14.07;;;1.00;99.90;;;;;;4974142;28;20236;-54
2024/01/20 09:55:21;;;;;;;19.63;13.30;;;1.10;99.90;;;;;;4974334;28;20203;-55
2024/01/20 09:57:49;;;;;;;21.40;14.20;;;1.00;99.90;;;;;;4974552;28;20177;-51
2024/01/20 10:00:16;;;;;;;19.80;12.53;;;0.90;99.90;;;;;;4975248;28;20345;-55
2024/01/20 10:02:45;;;;;;;21.63;13.07;;;0.90;99.90;;;;;;4993901;28;20192;-56
2024/01/20 10:05:11;;;;;;;20.00;12.90;;;0.80;99.90;;;;;;4982929;28;20185;-54
2024/01/20 10:07:37;;;;;;;20.03;13.87;;;0.70;99.90;;;;;;4973080;28;20184;-53
2024/01/20 10:10:03;;;;;;;23.83;13.23;;;0.80;99.90;;;;;;4973868;28;20167;-53
2024/01/20 10:12:29;;;;;;;21.80;14.67;;;0.60;99.90;;;;;;4975620;28;20260;-53
2024/01/20 10:14:55;;;;;;;23.47;15.47;;;0.60;99.90;;;;;;4977920;28;20193;-54
2024/01/20 10:17:20;;;;;;;22.90;15.60;;;0.60;99.90;;;;;;4977785;28;20176;-52
2024/01/20 10:19:46;;;;;;;25.07;15.90;;;0.80;99.90;;;;;;4977241;28;20228;-50
2024/01/20 10:22:13;;;;;;;22.27;14.87;;;0.70;99.90;;;;;;4976655;28;20217;-52
2024/01/20 10:24:52;;;;;;;22.63;15.03;;;0.90;99.90;;;;;;4977545;28;20228;-54
2024/01/20 10:27:24;;;;;;;24.43;15.03;;;0.90;99.90;;;;;;4977668;28;20666;-55
2024/01/20 10:29:50;;;;;;;26.40;16.73;;;0.80;99.90;;;;;;4977732;28;20181;-53
2024/01/20 10:32:16;;;;;;;24.93;15.87;;;0.90;99.90;;;;;;4977590;28;20705;-54
2024/01/20 10:34:43;;;;;;;25.77;15.93;;;1.10;99.90;;;;;;4977557;28;20268;-55
2024/01/20 10:37:13;;;;;;;25.83;15.63;;;1.00;99.90;;;;;;4977764;28;20189;-54
2024/01/20 10:39:44;;;;;;;24.03;15.10;;;1.00;99.90;;;;;;4976671;28;20177;-54
2024/01/20 10:42:14;;;;;;;23.63;14.37;;;1.10;99.90;;;;;;4977321;28;20315;-53
2024/01/20 10:45:08;;;;;;;21.73;14.50;;;1.10;99.90;;;;;;4977448;28;20210;-54
2024/01/20 10:47:39;;;;;;;23.80;15.20;;;1.30;99.90;;;;;;4977639;28;20281;-55
2024/01/20 10:50:07;;;;;;;19.70;13.17;;;1.20;99.90;;;;;;4977465;28;20176;-55
2024/01/20 10:52:34;;;;;;;21.13;14.00;;;1.20;99.90;;;;;;4977282;28;20662;-54
2024/01/20 10:55:02;;;;;;;21.90;13.90;;;1.20;99.90;;;;;;4976869;28;20177;-52
2024/01/20 10:57:28;;;;;;;21.87;13.77;;;1.30;99.90;;;;;;4977042;28;20205;-55
2024/01/20 10:59:56;;;;;;;22.37;15.00;;;1.10;99.90;;;;;;4976906;28;20223;-51
2024/01/20 11:02:24;;;;;;;23.17;15.07;;;1.30;99.90;;;;;;4977270;28;20324;-53
2024/01/20 11:04:49;;;;;;;22.10;14.63;;;1.20;99.90;;;;;;4977236;28;20240;-54
2024/01/20 11:07:22;;;;;;;19.60;14.27;;;1.00;99.90;;;;;;4976922;28;20186;-54
2024/01/20 11:09:58;;;;;;;19.33;13.90;;;0.90;99.90;;;;;;4976412;28;20181;-55
2024/01/20 11:12:29;;;;;;;20.30;14.77;;;1.00;99.90;;;;;;4976758;28;20181;-53
2024/01/20 11:14:57;;;;;;;22.13;14.67;;;0.90;99.90;;;;;;4976835;28;20642;-52
2024/01/20 11:17:23;;;;;;;21.77;14.73;;;0.90;99.90;;;;;;4976721;28;20185;-52
2024/01/20 11:19:52;;;;;;;22.83;14.87;;;1.00;99.90;;;;;;4976926;28;20186;-50
2024/01/20 11:22:31;;;;;;;23.13;14.73;;;0.80;99.90;;;;;;4976738;28;20246;-54
2024/01/20 11:24:57;;;;;;;21.53;14.83;;;0.80;99.90;;;;;;4975920;28;20331;-49
2024/01/20 11:27:23;;;;;;;21.97;14.80;;;0.90;99.90;;;;;;4976791;28;20288;-53
2024/01/20 11:29:49;;;;;;;20.80;14.17;;;1.00;99.90;;;;;;4976776;28;20231;-51
2024/01/20 11:32:14;;;;;;;19.93;13.60;;;1.10;99.90;;;;;;4959442;28;20197;-52
2024/01/20 11:34:41;;;;;;;20.60;14.50;;;1.00;99.90;;;;;;4976437;28;20188;-52
2024/01/20 11:37:08;;;;;;;20.67;13.87;;;1.10;99.90;;;;;;4976471;28;20184;-49
2024/01/20 11:39:34;;;;;;;21.20;13.43;;;1.00;99.90;;;;;;4976185;28;20512;-53
2024/01/20 11:42:03;;;;;;;18.53;13.17;;;1.00;99.90;;;;;;4976520;28;20220;-54
2024/01/20 11:44:31;;;;;;;19.50;14.03;;;1.00;99.90;;;;;;4976587;28;20177;-48
2024/01/20 11:46:58;;;;;;;19.90;13.63;;;1.00;99.90;;;;;;4976318;28;20177;-54
2024/01/20 11:49:25;;;;;;;18.70;14.10;;;1.10;99.90;;;;;;4976207;28;20182;-52
2024/01/20 11:51:51;;;;;;;19.20;13.00;;;1.10;99.90;;;;;;4976290;28;20188;-52
2024/01/20 11:54:17;;;;;;;18.00;12.93;;;1.20;99.90;;;;;;4976069;28;20184;-49
2024/01/20 11:56:43;;;;;;;21.10;13.83;;;1.30;99.90;;;;;;4976525;28;20182;-49
2024/01/20 11:59:08;;;;;;;17.77;13.07;;;1.30;99.90;;;;;;4976210;28;20185;-51
2024/01/20 12:01:35;;;;;;;14.37;11.33;;;1.20;99.90;;;;;;4975979;28;20232;-52
2024/01/20 12:04:01;;;;;;;17.87;13.03;;;1.20;99.90;;;;;;4975975;28;20178;-50
2024/01/20 12:06:27;;;;;;;15.90;12.40;;;1.40;99.90;;;;;;4976045;28;20237;-53
2024/01/20 12:08:56;;;;;;;16.70;13.10;;;1.40;99.90;;;;;;4975910;28;20181;-52
2024/01/20 12:11:23;;;;;;;16.17;12.30;;;1.50;99.90;;;;;;4975850;28;20642;-54
2024/01/20 12:13:49;;;;;;;18.27;11.97;;;1.30;99.90;;;;;;4976103;28;20189;-51
2024/01/20 12:16:16;;;;;;;15.17;11.80;;;1.30;99.90;;;;;;4975750;28;20182;-52
2024/01/20 12:18:42;;;;;;;19.47;12.80;;;1.30;99.90;;;;;;4975652;28;20181;-52
2024/01/20 12:21:07;;;;;;;15.00;11.33;;;1.40;99.90;;;;;;4975488;28;20263;-54
2024/01/20 12:23:35;;;;;;;18.43;11.83;;;1.40;99.90;;;;;;4975639;28;20189;-49
2024/01/20 12:26:01;;;;;;;17.17;11.87;;;1.40;99.90;;;;;;4975838;28;20198;-53
2024/01/20 12:28:27;;;;;;;17.97;12.03;;;1.50;99.90;;;;;;4975613;28;20283;-51
2024/01/20 12:30:52;;;;;;;16.20;12.77;;;1.40;99.90;;;;;;4975683;28;20176;-52